createdAt,value
2019-04-30T03:47:34.667Z,12.60
2019-04-30T03:50:02.729Z,12.30
2019-04-30T03:52:30.791Z,12.40
2019-04-30T03:55:02.854Z,12.10
2019-04-30T03:57:30.336Z,12.00
2019-04-30T03:59:59.606Z,12.40
2019-04-30T04:02:34.839Z,12.10
2019-04-30T04:05:22.679Z,12.00
2019-04-30T04:07:52.978Z,12.10
2019-04-30T04:10:40.356Z,12.00
2019-04-30T04:13:10.384Z,12.30
2019-04-30T04:15:39.930Z,12.30
2019-04-30T04:18:10.608Z,12.40
2019-04-30T04:20:46.410Z,12.40
2019-04-30T04:23:14.386Z,12.70
2019-04-30T04:25:42.417Z,12.50
2019-04-30T04:28:10.404Z,12.20
2019-04-30T04:30:39.231Z,12.30
2019-04-30T04:33:10.258Z,12.20
2019-04-30T04:35:39.296Z,12.40
2019-04-30T04:38:12.232Z,12.60
2019-04-30T04:40:39.839Z,12.50
2019-04-30T04:43:06.777Z,12.30
2019-04-30T04:45:36.675Z,12.50
2019-04-30T04:48:04.730Z,12.40
2019-04-30T04:50:32.732Z,12.10
2019-04-30T04:53:00.758Z,12.00
2019-04-30T04:55:29.926Z,12.00
2019-04-30T04:57:59.836Z,12.00
2019-04-30T05:00:29.337Z,12.00
2019-04-30T05:03:05.247Z,11.90
2019-04-30T05:05:33.224Z,11.80
2019-04-30T05:08:02.108Z,12.10
2019-04-30T05:10:30.115Z,12.60
2019-04-30T05:12:59.281Z,12.90
2019-04-30T05:15:29.350Z,13.00
2019-04-30T05:18:02.790Z,12.60
2019-04-30T05:20:30.849Z,12.40
2019-04-30T05:22:58.937Z,12.40
2019-04-30T05:25:27.233Z,12.30
2019-04-30T05:27:55.282Z,12.10
2019-04-30T05:30:23.524Z,12.00
2019-04-30T05:32:51.648Z,12.00
2019-04-30T05:35:19.780Z,12.20
2019-04-30T05:37:49.370Z,12.10
2019-04-30T05:40:18.825Z,12.10
2019-04-30T05:42:47.176Z,12.00
2019-04-30T05:45:22.056Z,11.90
2019-04-30T05:47:52.037Z,11.80
2019-04-30T05:50:20.148Z,11.90
2019-04-30T05:52:49.314Z,11.90
2019-04-30T05:55:19.594Z,11.80
2019-04-30T05:57:56.083Z,11.90
2019-04-30T06:00:19.068Z,12.20
2019-04-30T06:02:50.272Z,12.40
2019-04-30T06:05:18.758Z,12.20
2019-04-30T06:07:47.056Z,12.10
2019-04-30T06:10:25.271Z,12.10
2019-04-30T06:13:11.337Z,12.30
2019-04-30T06:15:41.035Z,12.60
2019-04-30T06:18:13.575Z,13.00
2019-04-30T06:20:39.738Z,13.20
2019-04-30T06:23:09.151Z,13.40
2019-04-30T06:25:55.580Z,13.20
2019-04-30T06:28:09.586Z,12.80
2019-04-30T06:30:40.075Z,12.70
2019-04-30T06:33:09.249Z,12.90
2019-04-30T06:35:39.159Z,13.00
2019-04-30T06:38:08.616Z,12.70
2019-04-30T06:40:36.669Z,12.60
2019-04-30T06:43:04.673Z,12.40
2019-04-30T06:45:32.676Z,12.40
2019-04-30T06:48:02.316Z,12.40
2019-04-30T06:50:39.485Z,12.10
2019-04-30T06:53:09.264Z,12.00
2019-04-30T06:55:40.216Z,12.10
2019-04-30T06:58:14.698Z,11.90
2019-04-30T07:00:40.172Z,11.90
2019-04-30T07:03:09.655Z,12.00
2019-04-30T07:05:38.907Z,12.00
2019-04-30T07:08:36.414Z,12.10
2019-04-30T07:11:12.947Z,12.00
2019-04-30T07:13:41.324Z,12.20
2019-04-30T07:16:10.988Z,12.10
2019-04-30T07:18:39.272Z,12.10
2019-04-30T07:21:08.726Z,12.40
2019-04-30T07:23:38.693Z,13.00
2019-04-30T07:26:09.166Z,12.70
2019-04-30T07:28:44.690Z,12.50
2019-04-30T07:31:13.457Z,12.50
2019-04-30T07:33:39.459Z,12.50
2019-04-30T07:36:06.679Z,12.60
2019-04-30T07:38:35.767Z,12.50
2019-04-30T07:41:04.366Z,12.40
2019-04-30T07:43:32.489Z,12.50
2019-04-30T07:46:00.511Z,12.40
2019-04-30T07:48:29.794Z,12.50
2019-04-30T07:50:59.252Z,12.70
2019-04-30T07:53:27.511Z,12.90
2019-04-30T07:55:56.408Z,13.10
2019-04-30T07:58:24.429Z,13.20
2019-04-30T08:00:56.185Z,13.20
2019-04-30T08:03:40.614Z,13.00
2019-04-30T08:06:10.072Z,12.90
2019-04-30T08:08:40.955Z,12.90
2019-04-30T08:11:09.256Z,13.10
2019-04-30T08:13:40.744Z,13.30
2019-04-30T08:16:09.664Z,13.30
2019-04-30T08:18:39.137Z,13.40
2019-04-30T08:21:09.290Z,13.20
2019-04-30T08:23:39.538Z,13.10
2019-04-30T08:26:08.843Z,13.30
2019-04-30T08:28:38.690Z,13.40
2019-04-30T08:31:08.827Z,13.60
2019-04-30T08:33:36.632Z,13.60
2019-04-30T08:36:04.615Z,13.60
2019-04-30T08:38:32.655Z,13.50
2019-04-30T08:41:00.905Z,13.60
2019-04-30T08:43:29.295Z,13.50
2019-04-30T08:45:59.360Z,13.60
2019-04-30T08:48:43.768Z,13.60
2019-04-30T08:50:56.792Z,13.90
2019-04-30T08:53:29.425Z,13.90
2019-04-30T08:55:55.414Z,13.70
2019-04-30T08:58:24.304Z,13.80
2019-04-30T09:00:53.336Z,13.70
2019-04-30T09:03:21.335Z,13.80
2019-04-30T09:05:50.955Z,14.30
2019-04-30T09:08:19.420Z,14.30
2019-04-30T09:10:49.064Z,14.20
2019-04-30T09:13:19.064Z,14.10
2019-04-30T09:15:49.095Z,14.10
2019-04-30T09:18:19.090Z,14.20
2019-04-30T09:20:49.365Z,14.10
2019-04-30T09:23:18.728Z,14.10
2019-04-30T09:25:46.870Z,14.40
2019-04-30T09:28:32.617Z,14.40
2019-04-30T09:31:00.621Z,14.70
2019-04-30T09:33:29.429Z,14.30
2019-04-30T09:35:59.417Z,14.60
2019-04-30T09:38:28.941Z,14.50
2019-04-30T09:41:02.837Z,14.30
2019-04-30T09:43:30.816Z,14.60
2019-04-30T09:46:19.151Z,14.60
2019-04-30T09:48:43.403Z,14.80
2019-04-30T09:51:11.903Z,15.10
2019-04-30T09:53:40.558Z,15.20
2019-04-30T09:56:09.541Z,15.40
2019-04-30T09:58:39.323Z,15.40
2019-04-30T10:01:10.534Z,15.40
2019-04-30T10:03:42.115Z,15.40
2019-04-30T10:06:16.071Z,15.30
2019-04-30T10:08:48.313Z,15.00
2019-04-30T10:11:18.142Z,15.10
2019-04-30T10:13:46.201Z,15.40
2019-04-30T10:16:19.564Z,15.40
2019-04-30T10:18:47.685Z,15.60
2019-04-30T10:21:15.681Z,15.60
2019-04-30T10:23:43.663Z,15.90
2019-04-30T10:26:11.735Z,15.80
2019-04-30T10:28:42.226Z,15.60
2019-04-30T10:31:10.567Z,15.60
2019-04-30T10:33:38.703Z,15.50
2019-04-30T10:36:07.087Z,15.70
2019-04-30T10:38:35.083Z,15.80
2019-04-30T10:41:03.268Z,15.90
2019-04-30T10:43:32.008Z,16.00
2019-04-30T10:46:00.269Z,15.70
2019-04-30T10:48:28.330Z,15.40
2019-04-30T10:50:56.394Z,15.60
2019-04-30T10:53:24.378Z,15.70
2019-04-30T10:55:52.459Z,16.20
2019-04-30T10:58:20.448Z,16.50
2019-04-30T11:00:49.839Z,16.20
2019-04-30T11:03:22.447Z,15.90
2019-04-30T11:05:48.838Z,15.90
2019-04-30T11:08:16.990Z,16.10
2019-04-30T11:10:45.006Z,15.90
2019-04-30T11:13:13.080Z,15.90
2019-04-30T11:15:41.065Z,15.90
2019-04-30T11:18:09.242Z,16.30
2019-04-30T11:20:39.528Z,16.00
2019-04-30T11:23:14.327Z,16.30
2019-04-30T11:25:37.813Z,16.60
2019-04-30T11:28:07.232Z,16.40
2019-04-30T11:30:36.228Z,16.20
2019-04-30T11:33:04.657Z,15.80
2019-04-30T11:35:32.816Z,15.80
2019-04-30T11:38:00.970Z,15.50
2019-04-30T11:40:36.652Z,15.50
2019-04-30T11:43:00.353Z,15.60
2019-04-30T11:45:29.891Z,15.90
2019-04-30T11:48:00.404Z,16.10
2019-04-30T11:50:29.983Z,16.40
2019-04-30T11:53:09.912Z,16.40
2019-04-30T11:55:29.100Z,16.60
2019-04-30T11:57:56.656Z,16.30
2019-04-30T12:00:26.400Z,16.50
2019-04-30T12:02:54.548Z,16.60
2019-04-30T12:05:22.741Z,16.70
2019-04-30T12:07:52.375Z,16.70
2019-04-30T12:10:29.395Z,16.60
2019-04-30T12:12:58.686Z,16.60
2019-04-30T12:15:26.802Z,16.40
2019-04-30T12:17:54.770Z,16.30
2019-04-30T12:20:22.932Z,16.50
2019-04-30T12:22:50.924Z,16.50
2019-04-30T12:25:18.911Z,16.80
2019-04-30T12:27:48.817Z,16.50
2019-04-30T12:30:20.578Z,16.60
2019-04-30T12:32:49.343Z,16.80
2019-04-30T12:35:17.840Z,16.70
2019-04-30T12:37:45.839Z,16.40
2019-04-30T12:40:28.561Z,16.60
2019-04-30T12:42:43.798Z,16.40
2019-04-30T12:45:11.993Z,16.10
2019-04-30T12:47:47.437Z,15.90
2019-04-30T12:50:29.227Z,15.80
2019-04-30T12:53:01.735Z,15.80
2019-04-30T12:55:49.024Z,16.00
2019-04-30T12:58:17.192Z,16.30
2019-04-30T13:00:45.325Z,16.30
2019-04-30T13:03:13.510Z,16.30
2019-04-30T13:05:42.061Z,16.60
2019-04-30T13:08:10.766Z,16.40
2019-04-30T13:10:39.684Z,16.10
2019-04-30T13:13:08.324Z,16.10
2019-04-30T13:15:36.694Z,16.30
2019-04-30T13:18:04.892Z,16.40
2019-04-30T13:20:33.065Z,16.60
2019-04-30T13:23:01.307Z,16.50
2019-04-30T13:25:35.214Z,16.40
2019-04-30T13:28:00.754Z,16.10
2019-04-30T13:30:30.635Z,15.90
2019-04-30T13:33:00.368Z,16.10
2019-04-30T13:35:29.034Z,16.20
2019-04-30T13:38:01.354Z,16.00
2019-04-30T13:40:48.878Z,15.80
2019-04-30T13:43:18.737Z,16.10
2019-04-30T13:45:48.615Z,16.00
2019-04-30T13:48:16.525Z,15.90
2019-04-30T13:50:44.572Z,16.00
2019-04-30T13:53:12.574Z,16.40
2019-04-30T13:55:45.596Z,16.20
2019-04-30T13:58:10.381Z,16.00
2019-04-30T14:00:39.728Z,16.00
2019-04-30T14:03:29.135Z,16.20
2019-04-30T14:05:59.334Z,16.20
2019-04-30T14:08:43.469Z,16.00
2019-04-30T14:11:11.464Z,16.20
2019-04-30T14:13:39.602Z,16.10
2019-04-30T14:16:07.616Z,16.20
2019-04-30T14:18:35.666Z,16.30
2019-04-30T14:21:03.839Z,16.20
2019-04-30T14:23:31.833Z,16.10
2019-04-30T14:26:01.317Z,16.50
2019-04-30T14:28:29.464Z,16.30
2019-04-30T14:30:57.453Z,16.40
2019-04-30T14:33:26.764Z,16.80
2019-04-30T14:35:55.057Z,16.90
2019-04-30T14:38:23.132Z,17.10
2019-04-30T14:40:51.903Z,17.10
2019-04-30T14:43:34.742Z,17.10
2019-04-30T14:46:09.772Z,17.50
2019-04-30T14:48:40.504Z,17.80
2019-04-30T14:51:08.566Z,17.90
2019-04-30T14:53:41.168Z,18.00
2019-04-30T14:56:13.626Z,18.10
2019-04-30T14:58:49.383Z,18.10
2019-04-30T15:01:25.343Z,17.90
2019-04-30T15:03:53.581Z,18.00
2019-04-30T15:06:21.737Z,18.20
2019-04-30T15:08:49.937Z,18.30
2019-04-30T15:11:19.012Z,18.40
2019-04-30T15:13:49.287Z,18.50
2019-04-30T15:16:17.249Z,18.60
2019-04-30T15:18:45.460Z,18.70
2019-04-30T15:21:13.558Z,18.70
2019-04-30T15:23:46.303Z,18.50
2019-04-30T15:26:22.106Z,18.60
2019-04-30T15:28:44.215Z,18.80
2019-04-30T15:31:12.521Z,18.80
2019-04-30T15:33:44.930Z,18.90
2019-04-30T15:36:13.221Z,18.80
2019-04-30T15:38:58.353Z,18.80
2019-04-30T15:41:26.686Z,18.90
2019-04-30T15:43:54.728Z,18.90
2019-04-30T15:46:23.369Z,18.90
2019-04-30T15:48:51.488Z,18.80
2019-04-30T15:51:19.782Z,18.90
2019-04-30T15:53:47.889Z,18.80
2019-04-30T15:56:16.018Z,18.90
2019-04-30T15:59:02.435Z,18.90
2019-04-30T16:01:30.549Z,19.00
2019-04-30T16:03:58.648Z,18.90
2019-04-30T16:06:28.473Z,18.80
2019-04-30T16:09:01.019Z,18.70
2019-04-30T16:11:30.680Z,18.80
2019-04-30T16:14:15.472Z,18.80
2019-04-30T16:19:19.969Z,18.80
2019-04-30T16:21:48.414Z,18.80
2019-04-30T16:24:18.633Z,18.80
2019-04-30T16:26:49.619Z,18.70
2019-04-30T16:29:15.939Z,18.90
2019-04-30T16:31:44.368Z,19.00
2019-04-30T16:34:31.822Z,19.00
2019-04-30T16:36:59.920Z,19.60
2019-04-30T16:39:28.788Z,20.30
2019-04-30T16:41:58.949Z,19.90
2019-04-30T16:44:26.681Z,19.80
2019-04-30T16:46:54.683Z,19.70
2019-04-30T16:49:23.035Z,21.10
2019-04-30T16:51:51.022Z,22.80
2019-04-30T16:54:19.065Z,21.50
2019-04-30T16:56:52.400Z,20.60
2019-04-30T16:59:30.434Z,20.10
2019-04-30T17:01:59.931Z,19.70
2019-04-30T17:04:29.059Z,19.50
2019-04-30T17:07:02.850Z,19.10
2019-04-30T17:09:32.498Z,19.00
2019-04-30T17:12:05.171Z,19.00
2019-04-30T17:14:36.339Z,18.90
2019-04-30T17:17:05.002Z,18.90
2019-04-30T17:19:33.562Z,18.80
2019-04-30T17:22:01.654Z,18.90
2019-04-30T17:24:30.250Z,18.90
2019-04-30T17:26:59.244Z,18.60
2019-04-30T17:29:27.525Z,18.70
2019-04-30T17:31:55.583Z,18.60
2019-04-30T17:34:26.037Z,18.60
2019-04-30T17:36:54.722Z,18.70
2019-04-30T17:39:23.474Z,18.70
2019-04-30T17:41:51.587Z,18.60
2019-04-30T17:44:19.710Z,18.50
2019-04-30T17:46:49.736Z,18.50
2019-04-30T17:49:18.981Z,18.50
2019-04-30T17:51:48.939Z,18.10
2019-04-30T17:54:16.894Z,18.20
2019-04-30T17:56:45.547Z,18.20
2019-04-30T17:59:13.743Z,18.20
2019-04-30T18:01:43.599Z,18.30
2019-04-30T18:04:11.727Z,18.20
2019-04-30T18:06:40.221Z,18.20
2019-04-30T18:09:10.785Z,18.10
2019-04-30T18:11:39.595Z,18.10
2019-04-30T18:14:18.702Z,18.00
2019-04-30T18:16:48.473Z,18.00
2019-04-30T18:19:21.668Z,17.90
2019-04-30T18:22:00.581Z,17.90
2019-04-30T18:24:30.345Z,17.70
2019-04-30T18:27:05.898Z,17.70
2019-04-30T18:29:34.920Z,17.10
2019-04-30T18:32:03.280Z,17.20
2019-04-30T18:34:35.280Z,16.90
2019-04-30T18:37:06.166Z,17.00
2019-04-30T18:39:34.561Z,16.50
2019-04-30T18:42:02.600Z,16.10
2019-04-30T18:44:30.688Z,16.10
2019-04-30T18:46:59.096Z,16.10
2019-04-30T18:49:28.722Z,16.10
2019-04-30T18:51:58.633Z,16.30
2019-04-30T18:54:28.599Z,16.00
2019-04-30T18:56:56.482Z,15.80
2019-04-30T18:59:24.566Z,15.70
2019-04-30T19:01:52.760Z,15.50
2019-04-30T19:04:20.876Z,15.70
2019-04-30T19:06:49.540Z,16.00
2019-04-30T19:09:34.386Z,16.00
2019-04-30T19:12:20.877Z,15.50
2019-04-30T19:14:56.267Z,15.20
2019-04-30T19:17:26.199Z,15.70
2019-04-30T19:19:55.950Z,15.50
2019-04-30T19:22:24.119Z,15.10
2019-04-30T19:24:56.104Z,14.90
2019-04-30T19:27:22.021Z,14.80
2019-04-30T19:29:51.705Z,14.80
2019-04-30T19:32:20.135Z,14.70
2019-04-30T19:34:48.994Z,14.60
2019-04-30T19:37:17.266Z,14.40
2019-04-30T19:39:45.958Z,14.50
2019-04-30T19:42:20.074Z,14.60
2019-04-30T19:44:58.841Z,14.60
2019-04-30T19:47:19.537Z,14.80
2019-04-30T19:49:50.595Z,15.10
2019-04-30T19:52:21.792Z,14.80
2019-04-30T19:54:54.059Z,14.70
2019-04-30T19:57:22.642Z,15.20
2019-04-30T19:59:58.670Z,15.30
2019-04-30T20:02:29.355Z,15.50
2019-04-30T20:04:59.031Z,15.40
2019-04-30T20:07:29.088Z,14.80
2019-04-30T20:10:03.232Z,14.50
2019-04-30T20:12:28.938Z,14.30
2019-04-30T20:14:56.952Z,14.30
2019-04-30T20:17:25.055Z,14.30
2019-04-30T20:19:54.918Z,14.90
2019-04-30T20:22:23.688Z,14.60
2019-04-30T20:24:56.205Z,14.30
2019-04-30T20:27:24.556Z,14.40
2019-04-30T20:29:52.740Z,14.60
2019-04-30T20:32:35.439Z,14.30
2019-04-30T20:34:52.742Z,14.00
2019-04-30T20:37:22.758Z,14.10
2019-04-30T20:39:59.152Z,14.00
2019-04-30T20:42:40.023Z,13.90
2019-04-30T20:45:06.366Z,13.80
2019-04-30T20:47:37.150Z,13.90
2019-04-30T20:50:10.520Z,13.80
2019-04-30T20:52:39.191Z,13.90
2019-04-30T20:55:07.498Z,13.70
2019-04-30T20:57:36.985Z,14.30
2019-04-30T21:00:05.918Z,14.20
2019-04-30T21:02:34.049Z,13.90
2019-04-30T21:05:03.685Z,13.60
2019-04-30T21:07:33.510Z,13.40
2019-04-30T21:10:05.698Z,13.60
2019-04-30T21:12:33.542Z,14.10
2019-04-30T21:15:01.648Z,14.00
2019-04-30T21:17:29.957Z,13.70
2019-04-30T21:19:58.863Z,13.30
2019-04-30T21:22:29.637Z,13.00
2019-04-30T21:25:00.345Z,13.20
2019-04-30T21:27:30.379Z,13.40
2019-04-30T21:29:58.977Z,13.60
2019-04-30T21:32:38.762Z,13.70
2019-04-30T21:35:25.081Z,13.80
2019-04-30T21:37:55.176Z,13.50
2019-04-30T21:40:23.175Z,13.20
2019-04-30T21:42:51.169Z,12.90
2019-04-30T21:45:19.177Z,12.70
2019-04-30T21:47:56.066Z,12.60
2019-04-30T21:50:19.661Z,12.60
2019-04-30T21:52:49.489Z,13.40
2019-04-30T21:55:19.666Z,12.90
2019-04-30T21:57:49.529Z,12.50
2019-04-30T22:00:36.726Z,12.40
2019-04-30T22:03:06.279Z,12.30
2019-04-30T22:05:34.265Z,12.60
2019-04-30T22:08:02.289Z,13.10
2019-04-30T22:10:30.352Z,13.40
2019-04-30T22:12:58.724Z,13.00
2019-04-30T22:15:26.761Z,12.60
2019-04-30T22:17:54.782Z,12.50
2019-04-30T22:20:22.850Z,12.80
2019-04-30T22:22:50.870Z,13.00
2019-04-30T22:25:19.399Z,13.00
2019-04-30T22:27:47.684Z,12.60
2019-04-30T22:30:15.777Z,12.30
2019-04-30T22:32:43.802Z,11.90
2019-04-30T22:35:16.506Z,11.70
2019-04-30T22:37:44.565Z,11.80
2019-04-30T22:40:12.648Z,11.90
2019-04-30T22:42:40.669Z,11.70
2019-04-30T22:45:10.946Z,11.60
2019-04-30T22:47:38.953Z,11.50
2019-04-30T22:50:07.434Z,11.40
2019-04-30T22:52:35.512Z,11.30
2019-04-30T22:55:04.154Z,11.30
2019-04-30T22:57:32.271Z,11.30
2019-04-30T23:00:00.346Z,11.30
